createdAt,value
2018-10-19T00:02:15.220Z,19.57
2018-10-19T00:06:19.919Z,14.60
2018-10-19T00:10:24.302Z,16.23
2018-10-19T00:14:28.639Z,16.10
2018-10-19T00:18:33.183Z,15.67
2018-10-19T00:22:37.613Z,19.23
2018-10-19T00:26:41.820Z,17.63
2018-10-19T00:30:47.217Z,16.40
2018-10-19T00:34:51.421Z,15.60
2018-10-19T00:38:55.931Z,15.57
2018-10-19T00:43:00.214Z,16.23
2018-10-19T00:47:04.522Z,18.67
2018-10-19T00:51:09.004Z,16.67
2018-10-19T00:55:13.188Z,15.60
2018-10-19T00:59:17.550Z,20.07
2018-10-19T01:03:21.794Z,15.37
2018-10-19T01:07:26.095Z,20.53
2018-10-19T01:11:30.304Z,15.80
2018-10-19T01:15:34.541Z,17.50
2018-10-19T01:19:38.886Z,21.57
2018-10-19T01:23:43.077Z,15.53
2018-10-19T01:27:47.429Z,15.83
2018-10-19T01:31:51.742Z,18.47
2018-10-19T01:35:56.133Z,18.27
2018-10-19T01:40:00.326Z,23.90
2018-10-19T01:44:04.718Z,19.10
2018-10-19T01:48:08.949Z,13.40
2018-10-19T01:52:13.247Z,21.93
2018-10-19T01:56:17.451Z,22.80
2018-10-19T02:00:21.795Z,17.80
2018-10-19T02:04:25.969Z,18.17
2018-10-19T02:08:30.254Z,15.13
2018-10-19T02:12:34.457Z,15.27
2018-10-19T02:16:38.799Z,15.57
2018-10-19T02:20:43.244Z,19.63
2018-10-19T02:24:47.773Z,21.40
2018-10-19T02:28:52.019Z,17.67
2018-10-19T02:32:56.584Z,13.40
2018-10-19T02:37:00.825Z,17.73
2018-10-19T02:41:05.640Z,17.67
2018-10-19T02:45:10.819Z,19.60
2018-10-19T02:49:15.134Z,18.20
2018-10-19T02:53:19.401Z,20.67
2018-10-19T02:57:23.702Z,19.87
2018-10-19T03:01:27.979Z,17.50
2018-10-19T03:05:32.383Z,18.23
2018-10-19T03:09:36.578Z,18.27
2018-10-19T03:14:43.739Z,12.73
2018-10-19T03:18:48.216Z,15.80
2018-10-19T03:22:52.606Z,21.53
2018-10-19T03:26:57.106Z,19.07
2018-10-19T03:31:01.475Z,18.90
2018-10-19T03:35:06.470Z,19.57
2018-10-19T03:39:11.098Z,18.50
2018-10-19T03:43:15.547Z,16.10
2018-10-19T03:47:19.915Z,16.70
2018-10-19T03:51:24.153Z,21.97
2018-10-19T03:55:28.465Z,20.73
2018-10-19T03:59:32.937Z,22.90
2018-10-19T04:03:37.243Z,18.90
2018-10-19T04:07:41.568Z,17.13
2018-10-19T04:11:45.841Z,14.90
2018-10-19T04:15:50.128Z,19.77
2018-10-19T04:19:54.589Z,19.93
2018-10-19T04:23:58.812Z,17.00
2018-10-19T04:28:03.301Z,14.27
2018-10-19T04:32:07.609Z,14.73
2018-10-19T04:36:11.869Z,23.27
2018-10-19T04:40:21.683Z,19.97
2018-10-19T04:44:26.306Z,16.33
2018-10-19T04:48:30.673Z,20.10
2018-10-19T04:52:34.950Z,23.20
2018-10-19T04:56:39.249Z,16.47
2018-10-19T05:00:43.451Z,17.13
2018-10-19T05:04:47.998Z,14.40
2018-10-19T05:08:52.164Z,18.20
2018-10-19T05:12:57.314Z,20.20
2018-10-19T05:17:01.746Z,23.63
2018-10-19T05:21:06.070Z,22.20
2018-10-19T05:25:12.555Z,13.20
2018-10-19T05:29:16.797Z,21.80
2018-10-19T05:33:21.306Z,19.97
2018-10-19T05:37:25.535Z,17.17
2018-10-19T05:41:29.879Z,17.77
2018-10-19T05:45:34.064Z,19.90
2018-10-19T05:49:38.421Z,17.77
2018-10-19T05:53:43.517Z,22.30
2018-10-19T05:57:48.461Z,23.67
2018-10-19T06:01:52.779Z,20.87
2018-10-19T06:05:57.067Z,22.00
2018-10-19T06:10:01.298Z,18.20
2018-10-19T06:14:05.874Z,18.03
2018-10-19T06:18:10.114Z,24.17
2018-10-19T06:22:14.483Z,20.10
2018-10-19T06:26:18.825Z,27.83
2018-10-19T06:30:23.231Z,20.03
2018-10-19T06:34:27.548Z,19.73
2018-10-19T06:38:32.136Z,20.33
2018-10-19T06:42:36.385Z,21.40
2018-10-19T06:46:40.619Z,21.77
2018-10-19T06:50:44.853Z,24.18
2018-10-19T06:54:49.194Z,20.60
2018-10-19T06:58:53.449Z,20.53
2018-10-19T07:02:57.635Z,17.43
2018-10-19T07:07:03.015Z,18.83
2018-10-19T07:11:07.360Z,19.37
2018-10-19T07:15:11.913Z,23.07
2018-10-19T07:19:16.157Z,20.10
2018-10-19T07:23:20.365Z,25.87
2018-10-19T07:27:24.839Z,21.77
2018-10-19T07:31:29.098Z,17.37
2018-10-19T07:35:33.437Z,21.33
2018-10-19T07:39:37.815Z,25.00
2018-10-19T07:43:42.004Z,18.70
2018-10-19T07:47:46.606Z,16.80
2018-10-19T07:51:50.949Z,17.03
2018-10-19T07:55:55.261Z,20.50
2018-10-19T08:00:01.322Z,14.23
2018-10-19T08:04:05.799Z,20.27
2018-10-19T08:08:10.134Z,19.13
2018-10-19T08:12:14.578Z,15.40
2018-10-19T08:16:18.854Z,20.90
2018-10-19T08:20:27.957Z,17.90
2018-10-19T08:24:32.306Z,17.03
2018-10-19T08:28:36.725Z,15.70
2018-10-19T08:32:40.986Z,17.67
2018-10-19T08:36:45.258Z,13.80
2018-10-19T08:40:49.547Z,15.65
2018-10-19T08:44:53.777Z,14.40
2018-10-19T08:48:58.041Z,17.23
2018-10-19T08:53:02.452Z,13.53
2018-10-19T08:57:07.286Z,17.33
2018-10-19T09:01:11.749Z,15.20
2018-10-19T09:05:16.061Z,15.83
2018-10-19T09:09:20.435Z,13.77
2018-10-19T09:13:24.682Z,14.90
2018-10-19T09:17:29.176Z,17.70
2018-10-19T09:21:33.468Z,16.07
2018-10-19T09:25:37.778Z,15.10
2018-10-19T09:29:42.067Z,15.20
2018-10-19T09:33:46.326Z,15.53
2018-10-19T09:37:50.664Z,17.23
2018-10-19T09:41:55.051Z,15.30
2018-10-19T09:45:59.276Z,17.73
2018-10-19T09:50:03.759Z,14.37
2018-10-19T09:54:08.468Z,13.43
2018-10-19T09:58:12.981Z,15.07
2018-10-19T10:02:17.508Z,12.50
2018-10-19T10:06:21.993Z,13.50
2018-10-19T10:10:26.897Z,14.40
2018-10-19T10:14:31.149Z,13.27
2018-10-19T10:18:35.906Z,11.27
2018-10-19T10:22:40.066Z,11.00
2018-10-19T10:26:44.439Z,11.17
2018-10-19T10:30:48.797Z,13.63
2018-10-19T10:34:53.263Z,15.50
2018-10-19T10:38:57.522Z,12.33
2018-10-19T10:43:01.955Z,16.20
2018-10-19T10:47:06.863Z,12.30
2018-10-19T10:51:11.340Z,14.23
2018-10-19T10:55:15.614Z,12.03
2018-10-19T10:59:20.216Z,13.80
2018-10-19T11:03:24.445Z,13.10
2018-10-19T11:07:28.788Z,13.53
2018-10-19T11:11:33.023Z,15.83
2018-10-19T11:15:37.270Z,13.37
2018-10-19T11:19:41.857Z,13.00
2018-10-19T11:23:46.081Z,13.43
2018-10-19T11:27:50.365Z,14.73
2018-10-19T11:31:54.620Z,11.70
2018-10-19T11:35:58.948Z,14.50
2018-10-19T11:40:20.792Z,11.67
2018-10-19T11:44:25.116Z,11.07
2018-10-19T11:48:29.441Z,11.67
2018-10-19T11:52:33.774Z,10.17
2018-10-19T11:56:38.076Z,10.37
2018-10-19T12:00:42.357Z,11.43
2018-10-19T12:04:46.779Z,12.07
2018-10-19T12:08:51.093Z,12.00
2018-10-19T12:12:56.517Z,10.30
2018-10-19T12:17:01.025Z,10.98
2018-10-19T12:21:05.838Z,10.93
2018-10-19T12:25:11.364Z,11.40
2018-10-19T12:29:15.688Z,10.80
2018-10-19T12:33:25.288Z,12.50
2018-10-19T12:37:29.731Z,11.27
2018-10-19T12:41:34.121Z,10.33
2018-10-19T12:46:47.993Z,11.27
2018-10-19T12:50:52.244Z,10.67
2018-10-19T12:54:56.533Z,13.03
2018-10-19T12:59:01.155Z,11.63
2018-10-19T13:03:05.478Z,10.50
2018-10-19T13:07:10.268Z,12.53
2018-10-19T13:11:14.474Z,11.80
2018-10-19T13:15:18.763Z,16.37
2018-10-19T13:19:23.451Z,12.68
2018-10-19T13:23:27.721Z,11.00
2018-10-19T13:27:31.960Z,12.50
2018-10-19T13:31:36.892Z,10.57
2018-10-19T13:35:41.231Z,11.27
2018-10-19T13:39:45.439Z,14.63
2018-10-19T13:43:49.752Z,11.80
2018-10-19T13:47:53.983Z,11.17
2018-10-19T13:51:58.303Z,10.33
2018-10-19T13:56:02.644Z,12.27
2018-10-19T14:00:07.373Z,10.47
2018-10-19T14:04:11.770Z,11.23
2018-10-19T14:08:16.117Z,11.48
2018-10-19T14:12:20.519Z,14.40
2018-10-19T14:16:24.796Z,14.38
2018-10-19T14:20:29.261Z,12.73
2018-10-19T14:24:33.522Z,11.60
2018-10-19T14:28:37.856Z,11.37
2018-10-19T14:32:42.585Z,13.77
2018-10-19T14:36:47.104Z,11.30
2018-10-19T14:40:51.440Z,12.23
2018-10-19T14:44:55.710Z,11.53
2018-10-19T14:49:00.066Z,12.23
2018-10-19T14:53:04.584Z,11.40
2018-10-19T14:57:09.110Z,13.07
2018-10-19T15:01:13.396Z,14.63
2018-10-19T15:05:18.877Z,12.77
2018-10-19T15:09:23.537Z,10.30
2018-10-19T15:13:27.824Z,13.30
2018-10-19T15:17:32.070Z,11.27
2018-10-19T15:21:36.727Z,9.33
2018-10-19T15:25:40.938Z,11.70
2018-10-19T15:29:45.635Z,14.33
2018-10-19T15:33:49.921Z,11.50
2018-10-19T15:37:54.158Z,13.37
2018-10-19T15:41:58.411Z,14.00
2018-10-19T15:46:02.815Z,11.53
2018-10-19T15:50:08.003Z,15.90
2018-10-19T15:54:12.474Z,17.17
2018-10-19T15:58:16.683Z,17.13
2018-10-19T16:02:22.125Z,12.83
2018-10-19T16:06:26.370Z,10.17
2018-10-19T16:10:30.862Z,14.80
2018-10-19T16:14:35.178Z,19.73
2018-10-19T16:18:39.485Z,14.67
2018-10-19T16:22:43.820Z,14.17
2018-10-19T16:26:49.230Z,17.83
2018-10-19T16:30:53.949Z,15.00
2018-10-19T16:34:58.307Z,17.43
2018-10-19T16:39:03.100Z,15.97
2018-10-19T16:43:07.289Z,17.20
2018-10-19T16:47:11.672Z,16.70
2018-10-19T16:51:15.967Z,14.53
2018-10-19T16:55:20.217Z,17.47
2018-10-19T16:59:24.622Z,12.73
2018-10-19T17:03:28.909Z,23.03
2018-10-19T17:07:33.178Z,19.97
2018-10-19T17:11:38.165Z,17.23
2018-10-19T17:15:42.395Z,19.97
2018-10-19T17:19:46.701Z,26.13
2018-10-19T17:23:50.969Z,16.60
2018-10-19T17:27:55.372Z,19.37
2018-10-19T17:31:59.625Z,17.43
2018-10-19T17:36:04.035Z,31.02
2018-10-19T17:40:09.720Z,22.13
2018-10-19T17:44:14.000Z,21.57
2018-10-19T17:48:18.380Z,17.43
2018-10-19T17:52:22.713Z,18.70
2018-10-19T17:56:26.973Z,23.03
2018-10-19T18:00:31.469Z,20.43
2018-10-19T18:04:35.733Z,19.53
2018-10-19T18:08:40.198Z,19.63
2018-10-19T18:12:44.650Z,21.33
2018-10-19T18:16:48.888Z,18.13
2018-10-19T18:20:53.256Z,19.67
2018-10-19T18:24:57.504Z,20.00
2018-10-19T18:29:02.218Z,19.57
2018-10-19T18:33:07.418Z,19.00
2018-10-19T18:37:12.468Z,26.80
2018-10-19T18:41:16.937Z,18.33
2018-10-19T18:45:21.372Z,17.20
2018-10-19T18:49:25.810Z,18.33
2018-10-19T18:53:29.988Z,19.77
2018-10-19T18:57:34.326Z,18.93
2018-10-19T19:01:38.651Z,21.47
2018-10-19T19:05:43.145Z,25.30
2018-10-19T19:09:52.645Z,17.40
2018-10-19T19:13:57.043Z,24.97
2018-10-19T19:18:03.540Z,20.57
2018-10-19T19:22:07.755Z,23.63
2018-10-19T19:26:13.572Z,20.17
2018-10-19T19:30:17.877Z,20.80
2018-10-19T19:34:36.616Z,25.37
2018-10-19T19:38:40.810Z,23.20
2018-10-19T19:42:49.185Z,20.40
2018-10-19T19:46:53.437Z,23.03
2018-10-19T19:50:57.682Z,22.27
2018-10-19T19:55:02.065Z,19.07
2018-10-19T19:59:06.442Z,27.50
2018-10-19T20:03:10.732Z,25.33
2018-10-19T20:07:15.191Z,25.73
2018-10-19T20:11:20.098Z,17.33
2018-10-19T20:15:24.440Z,21.33
2018-10-19T20:19:28.669Z,24.63
2018-10-19T20:23:32.908Z,19.87
2018-10-19T20:27:37.770Z,22.57
2018-10-19T20:31:42.565Z,25.03
2018-10-19T20:35:46.778Z,20.53
2018-10-19T20:39:51.415Z,19.80
2018-10-19T20:43:58.149Z,22.17
2018-10-19T20:48:02.425Z,21.07
2018-10-19T20:52:06.944Z,24.00
2018-10-19T20:56:11.335Z,27.20
2018-10-19T21:00:15.676Z,21.23
2018-10-19T21:04:20.233Z,23.50
2018-10-19T21:08:24.609Z,20.60
2018-10-19T21:12:29.285Z,28.90
2018-10-19T21:16:33.699Z,23.97
2018-10-19T21:20:38.100Z,18.97
2018-10-19T21:24:42.866Z,25.90
2018-10-19T21:28:47.169Z,25.33
2018-10-19T21:32:51.489Z,22.80
2018-10-19T21:36:55.813Z,17.50
2018-10-19T21:41:00.185Z,25.20
2018-10-19T21:45:04.762Z,18.77
2018-10-19T21:49:09.809Z,28.50
2018-10-19T21:53:14.133Z,26.37
2018-10-19T21:57:18.518Z,31.43
2018-10-19T22:01:22.923Z,21.10
2018-10-19T22:05:27.138Z,21.30
2018-10-19T22:09:31.398Z,22.27
2018-10-19T22:13:35.679Z,18.33
2018-10-19T22:17:39.878Z,14.90
2018-10-19T22:21:44.220Z,19.00
2018-10-19T22:25:48.467Z,17.60
2018-10-19T22:29:52.796Z,19.20
2018-10-19T22:33:57.022Z,25.00
2018-10-19T22:38:01.666Z,18.30
2018-10-19T22:42:06.125Z,20.00
2018-10-19T22:46:10.439Z,18.40
2018-10-19T22:50:14.721Z,18.00
2018-10-19T22:54:18.985Z,22.50
2018-10-19T22:58:23.306Z,20.40
2018-10-19T23:02:27.641Z,19.70
2018-10-19T23:06:32.073Z,21.00
2018-10-19T23:10:36.279Z,28.70
2018-10-19T23:14:40.760Z,20.00
2018-10-19T23:18:45.038Z,20.27
2018-10-19T23:22:52.835Z,24.53
2018-10-19T23:26:57.031Z,24.97
2018-10-19T23:31:01.543Z,20.70
2018-10-19T23:35:06.843Z,24.80
2018-10-19T23:39:12.490Z,19.10
2018-10-19T23:43:16.853Z,22.23
2018-10-19T23:47:21.092Z,15.70
2018-10-19T23:51:25.308Z,22.33
2018-10-19T23:55:29.794Z,16.37
2018-10-19T23:59:33.955Z,18.27
